Time;durP1;ratioP1;P1;durP2;ratioP2;P2;SDS_P1;SDS_P2;PMS_P1;PMS_P2;Temp;Humidity;BMP_temperature;BMP_pressure;BME280_temperature;BME280_humidity;BME280_pressure;Samples;Min_cycle;Max_cycle;Signal;HPM_P1;HPM_P2
2022/11/16 00:00:24;;;;;;;30.60;27.40;;;;;22.00;98894.00;;;;2069919;28;20210;-48
2022/11/16 00:01:26;;;;;;;30.57;27.00;;;;;22.00;98892.00;;;;2070555;28;20225;-48
2022/11/16 00:02:27;;;;;;;30.33;26.25;;;;;22.00;98883.00;;;;2069813;28;20644;-48
2022/11/16 00:03:27;;;;;;;30.00;26.03;;;;;22.00;98886.00;;;;2070372;28;20214;-48
2022/11/16 00:04:27;;;;;;;27.40;24.40;;;;;22.00;98890.00;;;;2070766;28;20210;-48
2022/11/16 00:05:28;;;;;;;29.53;26.20;;;;;22.00;98885.00;;;;2070331;28;20927;-48
2022/11/16 00:06:28;;;;;;;28.67;25.37;;;;;22.00;98885.00;;;;2070398;28;20603;-49
2022/11/16 00:07:28;;;;;;;26.87;24.03;;;;;22.00;98885.00;;;;2070707;28;20656;-48
2022/11/16 00:08:29;;;;;;;27.30;23.60;;;;;22.00;98886.00;;;;2070727;28;20240;-48
2022/11/16 00:09:30;;;;;;;27.00;23.95;;;;;22.00;98886.00;;;;2070555;28;21059;-48
2022/11/16 00:10:31;;;;;;;27.20;24.30;;;;;22.00;98882.00;;;;2066855;28;20217;-48
2022/11/16 00:11:31;;;;;;;25.03;22.43;;;;;22.00;98885.00;;;;2070581;28;20234;-48
2022/11/16 00:12:31;;;;;;;27.10;24.00;;;;;21.90;98884.00;;;;2068909;28;20216;-48
2022/11/16 00:13:33;;;;;;;26.43;22.00;;;;;21.90;98877.00;;;;2069904;28;20210;-48
2022/11/16 00:14:34;;;;;;;26.58;23.65;;;;;22.00;98877.00;;;;2070421;28;20288;-48
2022/11/16 00:15:34;;;;;;;25.30;22.60;;;;;21.90;98880.00;;;;2070335;28;20301;-48
2022/11/16 00:16:34;;;;;;;24.23;21.70;;;;;21.90;98889.00;;;;2069895;28;20218;-48
2022/11/16 00:17:35;;;;;;;25.40;22.70;;;;;21.90;98875.00;;;;2070507;28;20269;-48
2022/11/16 00:18:35;;;;;;;25.07;21.80;;;;;21.90;98876.00;;;;2070536;28;20206;-48
2022/11/16 00:19:35;;;;;;;23.77;21.33;;;;;21.90;98871.00;;;;2070618;28;20207;-48
2022/11/16 00:20:37;;;;;;;26.77;23.17;;;;;21.90;98877.00;;;;2070414;28;20198;-49
2022/11/16 00:21:38;;;;;;;26.05;22.70;;;;;21.90;98873.00;;;;2069720;28;20198;-48
2022/11/16 00:22:38;;;;;;;25.10;22.40;;;;;21.90;98874.00;;;;2068632;28;20577;-48
2022/11/16 00:23:38;;;;;;;24.03;21.43;;;;;21.90;98872.00;;;;2069989;28;20206;-48
2022/11/16 00:24:39;;;;;;;23.43;21.00;;;;;21.90;98875.00;;;;2069392;28;20237;-48
2022/11/16 00:25:39;;;;;;;22.50;20.00;;;;;21.90;98872.00;;;;2069109;28;20202;-48
2022/11/16 00:26:40;;;;;;;24.93;21.63;;;;;21.90;98873.00;;;;2069960;28;20205;-48
2022/11/16 00:27:40;;;;;;;22.37;19.83;;;;;21.90;98872.00;;;;2070608;28;20396;-48
2022/11/16 00:28:40;;;;;;;23.27;20.77;;;;;21.80;98874.00;;;;2070166;28;20240;-48
2022/11/16 00:29:41;;;;;;;21.73;19.43;;;;;21.80;98877.00;;;;2070557;28;20214;-48
2022/11/16 00:30:41;;;;;;;21.03;18.83;;;;;21.90;98870.00;;;;2070200;28;20218;-48
2022/11/16 00:31:42;;;;;;;20.97;18.80;;;;;21.90;98863.00;;;;2069837;28;20215;-48
2022/11/16 00:32:43;;;;;;;22.05;19.33;;;;;21.90;98868.00;;;;2069692;28;20218;-48
2022/11/16 00:33:43;;;;;;;23.90;20.10;;;;;21.90;98866.00;;;;2070537;28;20202;-48
2022/11/16 00:34:43;;;;;;;21.10;18.30;;;;;21.90;98872.00;;;;2070389;28;20237;-48
2022/11/16 00:35:44;;;;;;;21.50;19.27;;;;;21.80;98866.00;;;;2070629;28;20217;-48
2022/11/16 00:36:44;;;;;;;21.40;19.13;;;;;21.80;98830.00;;;;2070295;28;20210;-47
2022/11/16 00:37:45;;;;;;;21.70;19.00;;;;;21.80;98858.00;;;;2070857;28;20272;-48
2022/11/16 00:38:45;;;;;;;20.93;18.37;;;;;21.80;98863.00;;;;2073196;28;20217;-49
2022/11/16 00:39:45;;;;;;;21.57;19.23;;;;;21.80;98864.00;;;;2073164;28;20214;-48
2022/11/16 00:40:46;;;;;;;20.40;18.27;;;;;21.80;98859.00;;;;2073349;28;20210;-48
2022/11/16 00:41:46;;;;;;;19.30;17.30;;;;;21.80;98859.00;;;;2072633;28;20216;-48
2022/11/16 00:42:47;;;;;;;19.87;17.80;;;;;21.80;98858.00;;;;2072330;28;20297;-48
2022/11/16 00:43:47;;;;;;;21.07;18.30;;;;;21.80;98860.00;;;;2072913;28;20213;-48
2022/11/16 00:44:47;;;;;;;19.60;17.53;;;;;21.80;98859.00;;;;2072822;28;20221;-48
2022/11/16 00:45:48;;;;;;;20.73;17.73;;;;;21.80;98851.00;;;;2073216;28;20233;-48
2022/11/16 00:46:48;;;;;;;21.03;17.33;;;;;21.80;98854.00;;;;2072965;28;20279;-48
2022/11/16 00:47:48;;;;;;;20.80;18.17;;;;;21.80;98854.00;;;;2072903;28;20749;-48
2022/11/16 00:48:49;;;;;;;20.40;18.10;;;;;21.80;98852.00;;;;2073323;28;20643;-48
2022/11/16 00:49:49;;;;;;;18.73;16.43;;;;;21.80;98853.00;;;;2073258;28;20214;-48
2022/11/16 00:50:49;;;;;;;18.63;16.70;;;;;21.80;98855.00;;;;2073212;28;20264;-48
2022/11/16 00:51:50;;;;;;;18.23;16.33;;;;;21.80;98860.00;;;;2072076;28;20217;-48
2022/11/16 00:52:50;;;;;;;19.03;16.97;;;;;21.80;98861.00;;;;2073330;28;20214;-48
2022/11/16 00:53:50;;;;;;;19.10;17.00;;;;;21.80;98858.00;;;;2072131;28;20218;-49
2022/11/16 00:54:51;;;;;;;17.73;15.83;;;;;21.80;98862.00;;;;2071858;28;20218;-48
2022/11/16 00:55:51;;;;;;;18.07;16.00;;;;;21.80;98859.00;;;;2078886;28;20224;-48
2022/11/16 00:56:51;;;;;;;17.47;15.20;;;;;21.70;98838.00;;;;2080913;28;20304;-48
2022/11/16 00:57:51;;;;;;;16.80;14.47;;;;;21.70;98860.00;;;;2081261;28;20286;-47
2022/11/16 00:58:52;;;;;;;16.87;15.07;;;;;21.70;98859.00;;;;2080777;28;20217;-48
2022/11/16 00:59:52;;;;;;;17.13;15.33;;;;;21.70;98849.00;;;;2081007;28;20219;-48
2022/11/16 01:00:52;;;;;;;16.70;15.00;;;;;21.70;98859.00;;;;2081248;28;20209;-48
2022/11/16 01:01:53;;;;;;;17.50;14.70;;;;;21.70;98849.00;;;;2080338;28;20304;-48
2022/11/16 01:02:53;;;;;;;16.70;15.00;;;;;21.70;98844.00;;;;2081085;28;20218;-48
2022/11/16 01:03:53;;;;;;;17.03;15.20;;;;;21.70;98842.00;;;;2080913;28;20202;-48
2022/11/16 01:04:54;;;;;;;15.73;13.97;;;;;21.70;98849.00;;;;2081200;28;20220;-48
2022/11/16 01:05:59;;;;;;;15.30;13.53;;;;;21.70;98858.00;;;;2080979;28;20237;-49
2022/11/16 01:07:00;;;;;;;16.85;15.15;;;;;21.70;98850.00;;;;2080906;28;20224;-48
2022/11/16 01:08:00;;;;;;;18.80;15.50;;;;;21.80;98851.00;;;;2081432;28;20213;-48
2022/11/16 01:09:00;;;;;;;15.67;14.00;;;;;21.70;98858.00;;;;2080884;28;20244;-48
2022/11/16 01:10:05;;;;;;;15.40;13.80;;;;;21.70;98849.00;;;;2080960;28;20213;-48
2022/11/16 01:12:25;;;;;;;14.52;12.73;;;;;21.70;98847.00;;;;2074289;28;20213;-48
2022/11/16 01:13:25;;;;;;;14.50;12.63;;;;;21.70;98846.00;;;;2080876;28;20247;-48
2022/11/16 01:14:25;;;;;;;14.97;13.37;;;;;21.70;98834.00;;;;2080732;28;20271;-48
2022/11/16 01:15:26;;;;;;;14.33;12.80;;;;;21.70;98841.00;;;;2081297;28;20279;-49
2022/11/16 01:16:26;;;;;;;14.60;13.17;;;;;21.70;98834.00;;;;2081051;28;20309;-48
2022/11/16 01:17:26;;;;;;;12.50;11.20;;;;;21.70;98843.00;;;;2081116;28;20729;-48
2022/11/16 01:18:27;;;;;;;15.17;13.57;;;;;21.70;98835.00;;;;2081035;28;21140;-48
2022/11/16 01:19:27;;;;;;;15.23;13.63;;;;;21.70;98832.00;;;;2080871;28;20217;-48
2022/11/16 01:20:28;;;;;;;14.63;12.43;;;;;21.70;98834.00;;;;2080747;28;20217;-48
2022/11/16 01:21:28;;;;;;;13.50;12.10;;;;;21.70;98828.00;;;;2081265;28;20217;-48
2022/11/16 01:22:28;;;;;;;13.20;11.80;;;;;21.70;98830.00;;;;2080192;28;20275;-48
2022/11/16 01:23:29;;;;;;;13.77;11.80;;;;;21.70;98832.00;;;;2081075;28;20217;-48
2022/11/16 01:24:29;;;;;;;13.03;11.73;;;;;21.60;98838.00;;;;2081137;28;20236;-48
2022/11/16 01:25:29;;;;;;;14.90;12.30;;;;;21.60;98832.00;;;;2081036;28;20228;-48
2022/11/16 01:26:30;;;;;;;13.63;12.33;;;;;21.70;98837.00;;;;2080859;28;20686;-48
2022/11/16 01:27:30;;;;;;;12.40;11.13;;;;;21.70;98835.00;;;;2080617;28;20263;-48
2022/11/16 01:28:30;;;;;;;12.73;11.47;;;;;21.70;98838.00;;;;2080811;28;20692;-48
2022/11/16 01:29:31;;;;;;;12.83;11.53;;;;;21.70;98828.00;;;;2081153;28;20888;-48
2022/11/16 01:30:31;;;;;;;14.07;12.20;;;;;21.60;98829.00;;;;2080782;28;20237;-48
2022/11/16 01:31:31;;;;;;;11.40;10.20;;;;;21.70;98832.00;;;;2081053;28;20213;-48
2022/11/16 01:32:32;;;;;;;12.43;11.20;;;;;21.70;98825.00;;;;2080204;28;20252;-48
2022/11/16 01:33:32;;;;;;;11.40;10.27;;;;;21.60;98826.00;;;;2081014;28;20229;-48
2022/11/16 01:34:32;;;;;;;11.80;10.60;;;;;21.60;98833.00;;;;2081056;28;20275;-48
2022/11/16 01:35:33;;;;;;;12.10;10.80;;;;;21.60;98826.00;;;;2080753;28;20221;-48
2022/11/16 01:36:35;;;;;;;11.13;9.97;;;;;21.60;98829.00;;;;2081037;28;20263;-48
2022/11/16 01:37:35;;;;;;;12.20;10.93;;;;;21.60;98824.00;;;;2080850;28;20221;-48
2022/11/16 01:38:36;;;;;;;11.87;10.67;;;;;21.60;98832.00;;;;2080804;28;20217;-53
2022/11/16 01:39:36;;;;;;;10.50;9.40;;;;;21.60;98830.00;;;;2081315;28;20228;-49
2022/11/16 01:40:37;;;;;;;11.60;10.23;;;;;21.60;98829.00;;;;2080860;28;20732;-49
2022/11/16 01:41:37;;;;;;;10.90;9.80;;;;;21.60;98824.00;;;;2080703;28;20283;-49
2022/11/16 01:42:37;;;;;;;11.50;10.30;;;;;21.60;98823.00;;;;2079236;28;20220;-48
2022/11/16 01:43:54;;;;;;;10.10;9.10;;;;;21.60;98830.00;;;;2080206;28;20217;-49
2022/11/16 01:45:00;;;;;;;12.35;10.40;;;;;21.60;98827.00;;;;2080929;28;20259;-48
2022/11/16 01:46:01;;;;;;;10.32;9.32;;;;;21.40;98826.00;;;;2081251;28;20616;-48
2022/11/16 01:47:04;;;;;;;11.57;10.03;;;;;21.60;98826.00;;;;2080729;28;20228;-48
2022/11/16 01:48:05;;;;;;;9.65;8.65;;;;;21.60;98826.00;;;;2072376;28;20249;-48
2022/11/16 01:49:11;;;;;;;10.60;9.60;;;;;21.60;98826.00;;;;2056305;28;20287;-48
2022/11/16 01:50:13;;;;;;;9.75;8.75;;;;;21.60;98812.00;;;;2054659;28;20257;-48
2022/11/16 01:51:13;;;;;;;10.27;9.27;;;;;21.60;98822.00;;;;2047675;28;20216;-48
2022/11/16 01:52:17;;;;;;;10.73;9.63;;;;;21.60;98823.00;;;;2062169;28;20211;-47
2022/11/16 01:53:17;;;;;;;10.00;9.00;;;;;21.60;98815.00;;;;2079728;28;20210;-48
2022/11/16 01:54:17;;;;;;;10.47;9.10;;;;;21.60;98826.00;;;;2070071;28;20711;-48
2022/11/16 01:55:18;;;;;;;10.87;9.77;;;;;21.60;98824.00;;;;2070689;28;20636;-48
2022/11/16 01:56:19;;;;;;;10.00;8.80;;;;;21.60;98819.00;;;;2070729;28;20984;-48
2022/11/16 01:57:23;;;;;;;10.47;9.37;;;;;21.50;98814.00;;;;2061110;28;20306;-48
2022/11/16 01:58:24;;;;;;;10.30;9.20;;;;;21.60;98809.00;;;;2071314;28;20555;-48
2022/11/16 01:59:24;;;;;;;10.00;8.47;;;;;21.40;98809.00;;;;2070541;28;20244;-48
2022/11/16 02:00:24;;;;;;;9.97;8.93;;;;;21.60;98808.00;;;;2070701;28;20276;-48
2022/11/16 02:01:25;;;;;;;10.13;8.90;;;;;21.60;98807.00;;;;2079090;28;20225;-48
2022/11/16 02:02:25;;;;;;;10.67;8.97;;;;;21.50;98825.00;;;;2078490;28;20682;-48
2022/11/16 02:03:25;;;;;;;10.70;8.77;;;;;21.50;98805.00;;;;2079485;28;20536;-49
2022/11/16 02:04:26;;;;;;;8.27;7.40;;;;;21.50;98813.00;;;;2079633;28;20670;-48
2022/11/16 02:05:32;;;;;;;8.97;8.07;;;;;21.60;98816.00;;;;2078736;28;20764;-48
2022/11/16 02:06:40;;;;;;;9.68;8.15;;;;;21.60;98810.00;;;;2060837;28;20215;-48
2022/11/16 02:11:25;;;;;;;8.35;7.43;;;;;21.60;98825.00;;;;2070914;28;20229;-48
2022/11/16 02:13:03;;;;;;;9.52;7.43;;;;;21.50;98824.00;;;;2070148;28;20318;-48
2022/11/16 02:14:28;;;;;;;8.43;7.63;;;;;21.50;98826.00;;;;2070432;28;20217;-48
2022/11/16 02:15:46;;;;;;;8.00;7.25;;;;;21.50;98814.00;;;;2070764;28;20233;-48
2022/11/16 02:17:03;;;;;;;8.27;7.38;;;;;21.50;98832.00;;;;2062734;28;20210;-49
2022/11/16 02:18:25;;;;;;;8.68;7.78;;;;;21.50;98830.00;;;;2065287;28;20285;-48
2022/11/16 02:19:54;;;;;;;7.80;7.00;;;;;21.50;98816.00;;;;2071182;28;20351;-48
2022/11/16 02:21:36;;;;;;;8.02;7.22;;;;;21.50;98823.00;;;;2070794;28;20221;-48
2022/11/16 02:22:57;;;;;;;7.90;6.93;;;;;21.50;98819.00;;;;2058993;28;20221;-48
2022/11/16 02:24:27;;;;;;;7.50;6.60;;;;;21.50;98813.00;;;;2071248;28;20217;-48
2022/11/16 02:26:02;;;;;;;7.85;6.65;;;;;21.50;98811.00;;;;2053956;28;20212;-48
2022/11/16 02:27:27;;;;;;;7.20;6.50;;;;;21.50;98799.00;;;;2070232;28;20746;-48
2022/11/16 02:28:53;;;;;;;7.90;7.10;;;;;21.50;98806.00;;;;2065686;28;20399;-48
2022/11/16 02:29:53;;;;;;;7.93;6.75;;;;;21.50;98798.00;;;;2056532;28;20233;-47
2022/11/16 02:30:54;;;;;;;7.20;5.83;;;;;21.50;98807.00;;;;2069886;28;20220;-48
2022/11/16 02:32:12;;;;;;;6.57;5.97;;;;;21.50;98802.00;;;;2068822;28;20636;-48
2022/11/16 02:33:13;;;;;;;7.38;6.38;;;;;21.50;98800.00;;;;2078137;28;20228;-48
2022/11/16 02:34:14;;;;;;;6.25;5.65;;;;;21.50;98806.00;;;;2077973;28;20268;-48
2022/11/16 02:35:24;;;;;;;7.13;6.27;;;;;21.50;98797.00;;;;2078422;28;20213;-48
2022/11/16 02:36:24;;;;;;;6.00;5.40;;;;;21.50;98799.00;;;;2064529;28;20275;-48
2022/11/16 02:37:25;;;;;;;6.57;5.90;;;;;21.50;98801.00;;;;2078165;28;20244;-48
2022/11/16 02:38:27;;;;;;;6.93;6.23;;;;;21.50;98786.00;;;;2078577;28;20221;-48
2022/11/16 02:39:27;;;;;;;7.50;6.68;;;;;21.50;98797.00;;;;2070208;28;20284;-48
2022/11/16 02:40:29;;;;;;;6.47;5.87;;;;;21.50;98798.00;;;;2077213;28;20232;-48
2022/11/16 02:41:31;;;;;;;6.63;5.93;;;;;21.50;98786.00;;;;2078434;28;20202;-48
2022/11/16 02:42:33;;;;;;;6.70;5.95;;;;;21.50;98791.00;;;;2069552;28;20215;-48
2022/11/16 02:43:37;;;;;;;6.78;6.07;;;;;21.50;98792.00;;;;2070024;28;20320;-48
2022/11/16 02:44:40;;;;;;;6.13;5.53;;;;;21.50;98797.00;;;;2078272;28;20587;-48
2022/11/16 02:45:46;;;;;;;6.35;5.75;;;;;21.40;98783.00;;;;2062690;28;20304;-48
2022/11/16 02:46:47;;;;;;;6.18;5.43;;;;;21.40;98781.00;;;;2062048;28;20268;-51
2022/11/16 02:47:50;;;;;;;5.47;4.97;;;;;21.50;98773.00;;;;2060434;28;20219;-48
2022/11/16 02:48:52;;;;;;;6.30;5.70;;;;;21.40;98776.00;;;;2062917;28;20214;-48
2022/11/16 02:49:58;;;;;;;6.53;5.47;;;;;21.40;98774.00;;;;2063024;28;20234;-48
2022/11/16 02:50:58;;;;;;;5.65;5.13;;;;;21.50;98774.00;;;;2078366;28;20591;-48
2022/11/16 02:51:59;;;;;;;6.03;5.43;;;;;21.40;98776.00;;;;2077658;28;20212;-48
2022/11/16 02:52:59;;;;;;;5.63;5.13;;;;;21.40;98774.00;;;;2070439;28;20207;-48
2022/11/16 02:54:20;;;;;;;6.20;5.60;;;;;21.40;98779.00;;;;2070601;28;20225;-48
2022/11/16 02:55:21;;;;;;;5.60;5.10;;;;;21.40;98777.00;;;;2071893;28;20655;-48
2022/11/16 02:56:21;;;;;;;5.50;5.00;;;;;21.40;98777.00;;;;2070500;28;20211;-47
2022/11/16 02:57:30;;;;;;;5.60;5.10;;;;;21.50;98787.00;;;;2070510;28;20226;-48
2022/11/16 02:58:30;;;;;;;4.97;4.47;;;;;21.40;98769.00;;;;2063445;28;20223;-47
2022/11/16 02:59:45;;;;;;;7.33;5.33;;;;;21.50;98775.00;;;;2070582;28;20628;-47
2022/11/16 03:00:57;;;;;;;5.55;5.05;;;;;21.40;98774.00;;;;2070133;28;20779;-48
2022/11/16 03:02:15;;;;;;;5.93;4.78;;;;;21.40;98769.00;;;;2067989;28;20213;-47
2022/11/16 03:03:36;;;;;;;5.43;4.82;;;;;21.40;98778.00;;;;2070731;28;20564;-48
2022/11/16 03:04:40;;;;;;;6.53;5.10;;;;;21.40;98767.00;;;;2070911;28;20679;-48
2022/11/16 03:05:51;;;;;;;5.30;4.80;;;;;21.40;98776.00;;;;2062508;28;20346;-47
2022/11/16 03:06:51;;;;;;;5.38;4.63;;;;;21.40;98772.00;;;;2063064;28;20284;-48
2022/11/16 03:07:55;;;;;;;6.03;4.70;;;;;21.40;98757.00;;;;2069217;28;20284;-48
2022/11/16 03:09:10;;;;;;;4.97;4.47;;;;;21.40;98768.00;;;;2054675;28;20200;-48
2022/11/16 03:10:10;;;;;;;5.15;4.45;;;;;21.40;98769.00;;;;2049185;28;20229;-47
2022/11/16 03:12:31;;;;;;;4.93;4.43;;;;;21.40;98763.00;;;;2068924;28;20206;-48
2022/11/16 03:13:32;;;;;;;5.00;4.45;;;;;21.40;98769.00;;;;2072944;28;21050;-48
2022/11/16 03:14:45;;;;;;;5.32;4.47;;;;;21.40;98765.00;;;;2070476;28;20206;-48
2022/11/16 03:15:46;;;;;;;5.85;4.85;;;;;21.40;98767.00;;;;2078493;28;20209;-48
2022/11/16 03:16:48;;;;;;;5.20;4.50;;;;;21.40;98762.00;;;;2071302;28;20325;-47
2022/11/16 03:17:48;;;;;;;5.05;4.50;;;;;21.40;98767.00;;;;2061890;28;20219;-48
2022/11/16 03:18:49;;;;;;;4.40;4.00;;;;;21.40;98759.00;;;;2061887;28;20211;-48
2022/11/16 03:20:09;;;;;;;4.23;3.83;;;;;21.40;98765.00;;;;2072751;28;20213;-47
2022/11/16 03:21:14;;;;;;;4.55;4.07;;;;;21.40;98764.00;;;;2077520;28;20213;-48
2022/11/16 03:22:34;;;;;;;4.40;4.00;;;;;21.40;98754.00;;;;2064641;28;20222;-48
2022/11/16 03:23:34;;;;;;;5.25;4.00;;;;;21.40;98765.00;;;;2058955;28;20225;-48
2022/11/16 03:24:34;;;;;;;4.90;4.40;;;;;21.40;98770.00;;;;2069625;28;20972;-48
2022/11/16 03:25:38;;;;;;;3.90;3.50;;;;;21.40;98761.00;;;;2070583;28;20209;-48
2022/11/16 03:27:07;;;;;;;4.45;3.95;;;;;21.40;98759.00;;;;2069555;28;20249;-48
2022/11/16 03:28:11;;;;;;;4.45;4.05;;;;;21.40;98758.00;;;;2065006;28;20221;-48
2022/11/16 03:29:16;;;;;;;5.20;4.40;;;;;21.40;98763.00;;;;2069110;28;20691;-47
2022/11/16 03:30:19;;;;;;;4.28;3.55;;;;;21.40;98757.00;;;;2069597;28;20624;-48
2022/11/16 03:31:30;;;;;;;5.32;4.10;;;;;21.40;98763.00;;;;2069820;28;20639;-48
2022/11/16 03:32:34;;;;;;;4.43;3.70;;;;;21.40;98761.00;;;;2060400;28;20221;-48
2022/11/16 03:33:40;;;;;;;3.58;3.28;;;;;21.40;98754.00;;;;2063065;28;20226;-48
2022/11/16 03:34:40;;;;;;;4.55;4.03;;;;;21.40;98757.00;;;;2054079;28;20247;-48
2022/11/16 03:35:48;;;;;;;4.70;3.83;;;;;21.40;98758.00;;;;2038428;29;20225;-48
2022/11/16 03:36:48;;;;;;;3.70;3.40;;;;;21.40;98759.00;;;;2048137;28;20230;-48
2022/11/16 03:37:49;;;;;;;3.90;3.50;;;;;21.40;98760.00;;;;2054464;28;20222;-48
2022/11/16 03:38:51;;;;;;;3.80;3.43;;;;;21.40;98761.00;;;;2069772;28;20241;-47
2022/11/16 03:39:51;;;;;;;4.03;3.63;;;;;21.40;98763.00;;;;2061995;28;20462;-48
2022/11/16 03:40:52;;;;;;;3.87;3.27;;;;;21.40;98760.00;;;;2062461;28;20651;-47
2022/11/16 03:41:52;;;;;;;3.60;3.20;;;;;21.40;98758.00;;;;2069395;28;20218;-47
2022/11/16 03:42:52;;;;;;;3.93;3.53;;;;;21.40;98742.00;;;;2061796;28;20658;-48
2022/11/16 03:43:53;;;;;;;3.27;3.00;;;;;21.40;98766.00;;;;2045702;28;20853;-48
2022/11/16 03:44:53;;;;;;;3.47;3.17;;;;;21.40;98761.00;;;;2046040;28;20719;-48
2022/11/16 03:45:53;;;;;;;4.17;3.20;;;;;21.40;98755.00;;;;2046062;28;20270;-48
2022/11/16 03:46:54;;;;;;;3.37;3.07;;;;;21.40;98755.00;;;;2069882;28;20659;-48
2022/11/16 03:47:54;;;;;;;3.13;2.83;;;;;21.40;98756.00;;;;2070568;28;20702;-48
2022/11/16 03:48:56;;;;;;;3.73;3.13;;;;;21.40;98766.00;;;;2061603;28;20207;-48
2022/11/16 03:49:56;;;;;;;4.03;3.53;;;;;21.40;98762.00;;;;2053826;28;20239;-50
2022/11/16 03:50:57;;;;;;;3.67;3.37;;;;;21.40;98765.00;;;;2060760;28;20261;-49
2022/11/16 03:51:57;;;;;;;3.57;3.27;;;;;21.30;98767.00;;;;2069002;28;20257;-48
2022/11/16 03:52:57;;;;;;;3.53;3.23;;;;;21.40;98770.00;;;;2070787;28;20611;-48
2022/11/16 03:53:58;;;;;;;3.30;3.00;;;;;21.40;98774.00;;;;2070624;28;20350;-49
2022/11/16 03:54:58;;;;;;;4.07;3.67;;;;;21.30;98781.00;;;;2076165;28;20305;-48
2022/11/16 03:55:58;;;;;;;2.80;2.50;;;;;21.30;98778.00;;;;2077840;28;20219;-48
2022/11/16 03:56:59;;;;;;;3.37;3.00;;;;;21.30;98775.00;;;;2079046;28;20212;-48
2022/11/16 03:57:59;;;;;;;3.10;2.80;;;;;21.30;98782.00;;;;2078847;28;20229;-48
2022/11/16 03:58:59;;;;;;;3.40;3.10;;;;;21.30;98781.00;;;;2079012;28;20280;-48
2022/11/16 04:00:00;;;;;;;2.97;2.57;;;;;21.40;98779.00;;;;2078636;28;20303;-47
2022/11/16 04:01:02;;;;;;;3.10;2.80;;;;;21.30;98786.00;;;;2078049;28;20221;-48
2022/11/16 04:02:02;;;;;;;3.28;2.97;;;;;21.30;98787.00;;;;2070076;28;20279;-48
2022/11/16 04:03:02;;;;;;;3.30;3.00;;;;;21.40;98786.00;;;;2070791;28;20272;-48
2022/11/16 04:04:03;;;;;;;3.37;2.80;;;;;21.40;98787.00;;;;2070595;28;20210;-48
2022/11/16 04:24:11;;;;;;;3.78;3.38;;;;;21.30;98796.00;;;;2070115;28;20222;-48
2022/11/16 04:24:24;;;;;;;2.60;2.40;;;;;21.30;98800.00;;;;2069865;28;20213;-47
2022/11/16 04:25:27;;;;;;;3.10;2.80;;;;;21.30;98801.00;;;;2069956;28;20210;-48
2022/11/16 04:29:05;;;;;;;2.33;2.13;;;;;21.30;98800.00;;;;2078213;28;20217;-49
2022/11/16 04:30:06;;;;;;;2.50;2.30;;;;;21.30;98793.00;;;;2078620;28;20685;-47
2022/11/16 04:37:51;;;;;;;2.83;2.50;;;;;21.30;98800.00;;;;2070189;28;20551;-49
2022/11/16 04:38:51;;;;;;;2.58;1.90;;;;;21.30;98799.00;;;;2070611;28;20217;-49
2022/11/16 04:39:51;;;;;;;2.00;1.77;;;;;21.30;98803.00;;;;2070715;28;20233;-49
2022/11/16 04:40:52;;;;;;;2.20;1.90;;;;;21.30;98803.00;;;;2070361;28;20344;-49
2022/11/16 04:43:11;;;;;;;2.40;2.20;;;;;21.30;98812.00;;;;2070371;28;20218;-49
2022/11/16 04:44:11;;;;;;;2.20;2.00;;;;;21.30;98813.00;;;;2070359;28;20217;-49
2022/11/16 04:47:49;;;;;;;2.28;2.03;;;;;21.30;98818.00;;;;2083529;28;20282;-49
2022/11/16 04:48:50;;;;;;;2.83;2.27;;;;;21.30;98820.00;;;;2077751;28;20213;-49
2022/11/16 04:49:50;;;;;;;3.30;2.03;;;;;21.30;98814.00;;;;2075226;28;20221;-49
2022/11/16 04:50:50;;;;;;;3.17;1.93;;;;;21.30;98813.00;;;;2070170;28;20229;-49
2022/11/16 04:51:51;;;;;;;2.57;2.00;;;;;21.30;98812.00;;;;2069039;28;20226;-48
2022/11/16 04:52:51;;;;;;;2.47;2.00;;;;;21.30;98815.00;;;;2070494;28;20248;-48
2022/11/16 04:53:51;;;;;;;2.23;2.00;;;;;21.30;98808.00;;;;2070487;28;20256;-49
2022/11/16 04:54:52;;;;;;;2.10;1.90;;;;;21.30;98816.00;;;;2069982;28;20218;-49
2022/11/16 04:55:52;;;;;;;2.23;1.80;;;;;21.30;98811.00;;;;2069531;28;20229;-48
2022/11/16 04:56:52;;;;;;;3.33;2.30;;;;;21.20;98826.00;;;;2069870;28;20218;-49
2022/11/16 04:57:53;;;;;;;2.37;2.17;;;;;21.20;98820.00;;;;2069338;28;20237;-49
2022/11/16 04:58:53;;;;;;;1.50;1.40;;;;;21.30;98826.00;;;;2076235;28;20248;-49
2022/11/16 04:59:53;;;;;;;2.87;2.10;;;;;21.30;98820.00;;;;2078237;28;20217;-49
2022/11/16 05:00:54;;;;;;;2.10;1.70;;;;;21.20;98823.00;;;;2078040;28;20223;-49
2022/11/16 05:02:09;;;;;;;2.83;2.30;;;;;21.20;98818.00;;;;2077648;28;20210;-49
2022/11/16 05:03:09;;;;;;;2.50;1.95;;;;;21.20;98805.00;;;;2077900;28;20312;-48
2022/11/16 05:04:10;;;;;;;2.47;1.90;;;;;21.20;98806.00;;;;2077752;28;20299;-48
2022/11/16 05:05:10;;;;;;;1.60;1.40;;;;;21.20;98791.00;;;;2077948;28;20575;-47
2022/11/16 05:06:11;;;;;;;1.63;1.50;;;;;21.20;98802.00;;;;2077985;28;20260;-48
2022/11/16 05:07:12;;;;;;;2.30;1.53;;;;;21.20;98803.00;;;;2077780;28;20239;-49
2022/11/16 05:08:12;;;;;;;2.42;1.77;;;;;21.20;98808.00;;;;2077839;28;20221;-49
2022/11/16 05:09:13;;;;;;;2.10;1.90;;;;;21.20;98814.00;;;;2077520;28;20225;-49
2022/11/16 05:10:13;;;;;;;1.90;1.60;;;;;21.20;98795.00;;;;2078238;28;20298;-49
2022/11/16 05:11:14;;;;;;;2.10;1.70;;;;;21.20;98746.00;;;;2077526;28;20237;-49
2022/11/16 05:12:16;;;;;;;2.07;1.87;;;;;21.20;98816.00;;;;2070382;28;20257;-49
2022/11/16 05:13:16;;;;;;;1.85;1.60;;;;;21.20;98804.00;;;;2070333;28;20650;-49
2022/11/16 05:14:17;;;;;;;2.20;1.67;;;;;21.20;98810.00;;;;2077197;28;20217;-49
2022/11/16 05:15:18;;;;;;;2.53;1.50;;;;;21.20;98805.00;;;;2070021;28;20217;-49
2022/11/16 05:16:18;;;;;;;1.80;1.65;;;;;21.20;98814.00;;;;2070026;28;20302;-49
2022/11/16 05:17:19;;;;;;;1.77;1.53;;;;;21.20;98818.00;;;;2068774;28;20222;-49
2022/11/16 05:18:19;;;;;;;1.60;1.33;;;;;21.20;98816.00;;;;2069817;28;20222;-50
2022/11/16 05:21:57;;;;;;;2.03;1.70;;;;;21.20;98822.00;;;;2066707;28;20218;-49
2022/11/16 05:22:58;;;;;;;2.40;1.63;;;;;21.20;98826.00;;;;2070507;28;20206;-49
2022/11/16 05:25:17;;;;;;;2.08;1.52;;;;;21.20;98823.00;;;;2070588;28;20948;-49
2022/11/16 05:26:17;;;;;;;2.30;1.93;;;;;21.20;98821.00;;;;2071516;28;20226;-49
2022/11/16 05:27:18;;;;;;;2.00;1.73;;;;;21.20;98821.00;;;;2071612;28;20256;-49
2022/11/16 05:28:18;;;;;;;2.00;1.60;;;;;21.20;98822.00;;;;2071233;28;20212;-49
2022/11/16 05:29:18;;;;;;;1.60;1.40;;;;;21.20;98820.00;;;;2071884;28;20461;-49
2022/11/16 05:30:19;;;;;;;1.73;1.23;;;;;21.20;98833.00;;;;2071843;28;20249;-48
2022/11/16 05:31:19;;;;;;;3.87;2.07;;;;;21.20;98831.00;;;;2071838;28;20289;-48
2022/11/16 05:32:20;;;;;;;1.67;1.40;;;;;21.20;98832.00;;;;2070854;28;20467;-49
2022/11/16 05:33:20;;;;;;;1.50;1.20;;;;;21.20;98831.00;;;;2071702;28;20214;-49
2022/11/16 05:34:21;;;;;;;1.70;1.60;;;;;21.20;98834.00;;;;2071368;28;20469;-49
2022/11/16 05:35:21;;;;;;;1.63;1.40;;;;;21.20;98828.00;;;;2073997;28;20224;-48
2022/11/16 05:36:21;;;;;;;2.13;1.70;;;;;21.20;98832.00;;;;2078867;28;20213;-48
2022/11/16 05:37:25;;;;;;;1.60;1.50;;;;;21.20;98836.00;;;;2067536;28;20218;-49
2022/11/16 05:38:25;;;;;;;1.50;1.40;;;;;21.20;98840.00;;;;2071444;28;20291;-49
2022/11/16 05:39:26;;;;;;;1.77;1.30;;;;;21.20;98840.00;;;;2071579;28;20263;-49
2022/11/16 05:40:26;;;;;;;1.73;1.50;;;;;21.20;98838.00;;;;2070491;28;20218;-49
2022/11/16 05:41:26;;;;;;;1.50;1.30;;;;;21.20;98838.00;;;;2070470;28;20718;-49
2022/11/16 05:42:27;;;;;;;1.40;1.30;;;;;21.20;98843.00;;;;2070399;28;20210;-49
2022/11/16 05:43:28;;;;;;;1.30;1.10;;;;;21.20;98836.00;;;;2074195;28;20211;-49
2022/11/16 05:44:28;;;;;;;1.60;1.40;;;;;21.20;98846.00;;;;2072227;28;20210;-48
2022/11/16 05:45:29;;;;;;;1.50;1.40;;;;;21.20;98840.00;;;;2070456;28;20252;-49
2022/11/16 05:46:29;;;;;;;2.10;1.43;;;;;21.20;98850.00;;;;2070453;28;20206;-49
2022/11/16 05:47:29;;;;;;;1.77;1.30;;;;;21.20;98841.00;;;;2071537;28;20506;-50
2022/11/16 05:48:30;;;;;;;2.93;1.47;;;;;21.20;98841.00;;;;2071400;28;20730;-49
2022/11/16 05:49:30;;;;;;;1.17;1.07;;;;;21.20;98837.00;;;;2071399;28;20744;-48
2022/11/16 05:50:30;;;;;;;1.60;1.23;;;;;21.20;98845.00;;;;2071709;28;20703;-49
2022/11/16 05:51:31;;;;;;;1.67;1.50;;;;;21.10;98841.00;;;;2071708;28;20234;-48
2022/11/16 05:52:31;;;;;;;1.50;1.40;;;;;21.10;98846.00;;;;2070614;28;20214;-48
2022/11/16 05:53:31;;;;;;;1.70;1.30;;;;;21.20;98840.00;;;;2071927;28;20213;-49